Thursday, February 22, 2018, 12:04 PM EST
Back to Local

KWST, Westerly State Airport

Location: Westerly, RI, United States Lat: 41.35
Local Time: 12:04 PM EST (17:04 GMT) Lon: -71.8
Time Zone: US/Eastern Elev: 82 ft

Show me the last for .
Show Decoded

2018-02-22 10:53 METAR KWST 221553Z AUTO 06008KT 10SM OVC070 07/02 A3062 RMK AO2 RAE24 SLP369
                 P0000 T00720017 =
2018-02-22 09:53 METAR KWST 221453Z AUTO VRB03KT 10SM -RA OVC070 07/02 A3063 RMK AO2 RAB53 PRESRR
                 SLP372 P0000 60001 T00720022 53015 =
2018-02-22 08:53 METAR KWST 221353Z AUTO 06006KT 10SM OVC065 07/04 A3059 RMK AO2 SLP359 T00670039
                 =
2018-02-22 07:53 METAR KWST 221253Z AUTO 04005KT 10SM OVC070 06/03 A3059 RMK AO2 RAE15 SLP358
                 P0001 T00610033 =
2018-02-22 06:53 METAR KWST 221153Z AUTO 07004KT 8SM -RA BKN065 OVC080 06/03 A3058 RMK AO2
                 RAB1054 SLP356 P0008 60008 70014 T00610028 10139 20061 51036 =
2018-02-22 05:53 METAR KWST 221053Z AUTO 01007KT 10SM OVC060 09/03 A3056 RMK AO2 RAE27 SLP348
                 P0000 T00940028 =
2018-02-22 04:53 METAR KWST 220953Z AUTO 35007KT 9SM -RA OVC060 10/06 A3052 RMK AO2 RAB20E31B47
                 SLP334 P0000 T01000056 =
2018-02-22 03:53 METAR KWST 220853Z AUTO 01008KT 10SM OVC055 12/08 A3048 RMK AO2 RAB0756E06
                 SLP319 P0000 60000 T01220078 53024 =
2018-02-22 02:53 METAR KWST 220753Z AUTO 35005KT 10SM OVC048 13/10 A3044 RMK AO2 SLP309 T01330100
                 =
2018-02-22 01:53 METAR KWST 220653Z AUTO 34005KT 10SM OVC047 13/11 A3043 RMK AO2 SLP302 T01330111
                 =
2018-02-22 00:53 METAR KWST 220553Z AUTO 00000KT 10SM OVC048 12/12 A3040 RMK AO2 SLP295 60006
                 T01220117 10150 20083 51025 =
2018-02-21 23:53 METAR KWST 220453Z AUTO 00000KT 10SM BKN047 OVC065 12/12 A3037 RMK AO2 RAB11E46
                 SLP285 P0006 T01220117 401500083 =
2018-02-21 23:36 METAR KWST 220436Z AUTO 00000KT 5SM -RA BR BKN043 BKN050 OVC070 13/12 A3038 RMK
                 AO2 RAB11 P0006 T01280117 =
2018-02-21 23:26 METAR KWST 220426Z AUTO 25003KT 2 1/2SM RA BR SCT046 OVC055 13/12 A3038 RMK AO2
                 RAB11 P0005 T01280117 =
2018-02-21 22:53 METAR KWST 220353Z AUTO 25004KT 10SM OVC042 14/12 A3036 RMK AO2 SLP280 T01440122
                 =
2018-02-21 21:53 METAR KWST 220253Z AUTO 28003KT 10SM FEW042 BKN050 13/12 A3033 RMK AO2 SLP269
                 T01330122 51025 =
2018-02-21 20:53 METAR KWST 220153Z AUTO 33004KT 5SM BR BKN043 11/11 A3031 RMK AO2 SLP265
                 T01110111 =
2018-02-21 19:53 METAR KWST 220053Z AUTO 00000KT 6SM BR FEW014 FEW060 12/12 A3029 RMK AO2 SLP257
                 T01170117 =
2018-02-21 19:27 METAR KWST 220027Z AUTO 00000KT 4SM BR FEW002 09/09 A3026 RMK AO2 T00940094 =
2018-02-21 19:20 METAR KWST 220020Z AUTO 00000KT 2 1/2SM BR SCT002 09/09 A3026 RMK AO2 T00940094
                 =
2018-02-21 19:16 METAR KWST 220016Z AUTO 00000KT 1 1/4SM BR BKN002 09/09 A3026 RMK AO2 T00890089
                 =
2018-02-21 18:53 METAR KWST 212353Z AUTO 00000KT 1/2SM FG VV001 09/09 A3025 RMK AO2 SLP245
                 T00890089 10122 20089 51011 =
2018-02-21 17:53 METAR KWST 212253Z AUTO 22003KT 1/4SM FG VV002 09/09 A3023 RMK AO2 SLP237
                 T00940094 =
2018-02-21 16:53 METAR KWST 212153Z AUTO 21003KT M1/4SM FG VV002 10/10 A3022 RMK AO2 SLP234
                 T01000100 =
2018-02-21 15:53 METAR KWST 212053Z AUTO 24006KT M1/4SM FG VV002 11/11 A3022 RMK AO2 SLP231
                 T01110111 56007 =
2018-02-21 14:53 METAR KWST 211953Z AUTO 24007KT 1/4SM FG VV002 10/10 A3022 RMK AO2 SLP234
                 T01000100 =
2018-02-21 14:31 METAR KWST 211931Z AUTO 23008KT 1/4SM FG VV002 11/11 A3022 RMK AO2 T01110111 =
2018-02-21 14:17 METAR KWST 211917Z AUTO 24005KT 1/2SM FG OVC001 12/12 A3022 RMK AO2 T01220122 =
2018-02-21 14:09 METAR KWST 211909Z AUTO 24007KT 1/4SM FG OVC002 12/12 A3021 RMK AO2 T01170117 =
2018-02-21 13:53 METAR KWST 211853Z AUTO 23006KT 3/4SM BR OVC002 12/12 A3021 RMK AO2 SLP231
                 T01220122 =
2018-02-21 13:35 METAR KWST 211835Z AUTO 22008G15KT 1 3/4SM BR OVC002 12/12 A3022 RMK AO2
                 T01170117 =
2018-02-21 12:53 METAR KWST 211753Z AUTO 24004KT 3SM BR OVC002 11/11 A3024 RMK AO2 SLP240
                 T01060106 10106 20083 58021 =
2018-02-21 12:30 METAR KWST 211730Z AUTO 24005KT 3SM BR OVC002 11/11 A3025 RMK AO2 T01060106 =
2018-02-21 12:21 METAR KWST 211721Z AUTO VRB04KT 1 1/2SM BR OVC001 10/10 A3026 RMK AO2 T01000100
                 =

Support USWX by starting your Amazon purchase here.